createdAt,value
2017-04-01T00:00:39.123Z,28.72
2017-04-01T00:01:39.275Z,27.02
2017-04-01T00:02:39.354Z,25.73
2017-04-01T00:03:39.378Z,25.98
2017-04-01T00:04:39.450Z,22.22
2017-04-01T00:05:40.083Z,30.38
2017-04-01T00:06:40.193Z,26.98
2017-04-01T00:07:40.278Z,21.62
2017-04-01T00:08:40.339Z,27.88
2017-04-01T00:09:40.406Z,27.05
2017-04-01T00:10:40.782Z,24.58
2017-04-01T00:11:42.020Z,26.80
2017-04-01T00:12:42.117Z,26.97
2017-04-01T00:13:42.174Z,28.68
2017-04-01T00:14:43.039Z,26.90
2017-04-01T00:15:44.417Z,31.33
2017-04-01T00:16:44.485Z,27.43
2017-04-01T00:17:44.525Z,26.95
2017-04-01T00:18:45.330Z,28.20
2017-04-01T00:19:45.385Z,27.80
2017-04-01T00:20:45.723Z,29.25
2017-04-01T00:21:45.770Z,27.37
2017-04-01T00:22:45.861Z,24.92
2017-04-01T00:23:45.949Z,27.13
2017-04-01T00:24:46.002Z,26.88
2017-04-01T00:25:46.365Z,27.80
2017-04-01T00:26:46.367Z,24.17
2017-04-01T00:27:46.410Z,28.48
2017-04-01T00:28:46.447Z,23.78
2017-04-01T00:29:46.497Z,35.22
2017-04-01T00:30:46.877Z,27.57
2017-04-01T00:31:46.901Z,23.33
2017-04-01T00:32:46.940Z,31.40
2017-04-01T00:33:47.083Z,24.78
2017-04-01T00:34:47.889Z,31.18
2017-04-01T00:35:48.232Z,31.00
2017-04-01T00:36:48.272Z,28.80
2017-04-01T00:37:48.298Z,25.58
2017-04-01T00:38:48.376Z,23.15
2017-04-01T00:39:48.487Z,31.73
2017-04-01T00:40:48.880Z,31.75
2017-04-01T00:41:49.734Z,25.32
2017-04-01T00:42:49.817Z,27.98
2017-04-01T00:43:49.894Z,31.05
2017-04-01T00:44:50.125Z,27.57
2017-04-01T00:45:50.548Z,30.73
2017-04-01T00:46:50.600Z,31.25
2017-04-01T00:47:50.686Z,31.42
2017-04-01T00:48:50.781Z,31.28
2017-04-01T00:49:50.868Z,29.58
2017-04-01T00:50:51.291Z,29.20
2017-04-01T00:51:51.373Z,32.38
2017-04-01T00:52:51.478Z,31.72
2017-04-01T00:53:51.502Z,30.37
2017-04-01T00:54:51.534Z,28.42
2017-04-01T00:55:51.947Z,32.70
2017-04-01T00:56:52.051Z,34.55
2017-04-01T00:57:52.102Z,36.18
2017-04-01T00:58:52.150Z,34.93
2017-04-01T00:59:52.802Z,32.95
2017-04-01T01:00:53.205Z,32.02
2017-04-01T01:01:53.354Z,29.03
2017-04-01T01:02:53.432Z,34.55
2017-04-01T01:03:54.322Z,35.97
2017-04-01T01:04:54.368Z,27.15
2017-04-01T01:05:54.826Z,32.95
2017-04-01T01:06:54.952Z,28.47
2017-04-01T01:07:55.150Z,28.53
2017-04-01T01:08:55.237Z,27.22
2017-04-01T01:09:55.277Z,31.13
2017-04-01T01:10:55.648Z,30.78
2017-04-01T01:11:55.722Z,33.50
2017-04-01T01:12:55.730Z,32.83
2017-04-01T01:13:55.792Z,27.77
2017-04-01T01:14:55.893Z,24.72
2017-04-01T01:15:56.233Z,29.78
2017-04-01T01:16:56.304Z,29.92
2017-04-01T01:17:56.400Z,28.70
2017-04-01T01:18:56.569Z,33.80
2017-04-01T01:19:56.567Z,27.07
2017-04-01T01:20:56.970Z,33.82
2017-04-01T01:21:57.119Z,36.32
2017-04-01T01:22:57.393Z,28.90
2017-04-01T01:23:57.496Z,28.47
2017-04-01T01:24:57.575Z,36.65
2017-04-01T01:25:57.966Z,27.10
2017-04-01T01:26:57.995Z,31.73
2017-04-01T01:27:58.015Z,35.58
2017-04-01T01:28:57.992Z,32.67
2017-04-01T01:29:58.796Z,28.42
2017-04-01T01:30:59.122Z,28.98
2017-04-01T01:31:59.138Z,29.55
2017-04-01T01:32:59.222Z,27.83
2017-04-01T01:33:59.255Z,29.75
2017-04-01T01:34:59.287Z,30.80
2017-04-01T01:35:59.975Z,28.38
2017-04-01T01:37:00.016Z,34.25
2017-04-01T01:38:00.129Z,31.43
2017-04-01T01:39:00.156Z,30.25
2017-04-01T01:40:00.202Z,33.50
2017-04-01T01:41:01.410Z,32.17
2017-04-01T01:42:01.462Z,38.07
2017-04-01T01:43:01.486Z,33.52
2017-04-01T01:44:01.606Z,32.03
2017-04-01T01:45:01.732Z,31.10
2017-04-01T01:46:02.213Z,31.70
2017-04-01T01:47:02.288Z,33.68
2017-04-01T01:48:02.328Z,38.33
2017-04-01T01:49:02.462Z,35.00
2017-04-01T01:50:03.197Z,34.90
2017-04-01T01:51:03.559Z,33.02
2017-04-01T01:52:03.590Z,34.82
2017-04-01T01:53:03.627Z,33.08
2017-04-01T01:54:03.651Z,36.17
2017-04-01T01:55:03.694Z,33.47
2017-04-01T01:56:04.018Z,33.00
2017-04-01T01:57:04.095Z,34.87
2017-04-01T01:58:04.123Z,31.43
2017-04-01T01:59:04.161Z,32.65
2017-04-01T02:00:04.287Z,30.80
2017-04-01T02:01:04.655Z,32.00
2017-04-01T02:02:04.712Z,37.58
2017-04-01T02:03:04.748Z,31.63
2017-04-01T02:04:04.817Z,33.28
2017-04-01T02:05:04.935Z,38.97
2017-04-01T02:06:05.428Z,34.38
2017-04-01T02:07:05.534Z,39.53
2017-04-01T02:08:05.664Z,36.87
2017-04-01T02:09:06.128Z,35.23
2017-04-01T02:10:06.174Z,32.12
2017-04-01T02:11:06.773Z,34.28
2017-04-01T02:12:06.816Z,36.73
2017-04-01T02:13:06.888Z,31.80
2017-04-01T02:14:07.061Z,35.47
2017-04-01T02:15:07.094Z,34.67
2017-04-01T02:16:08.238Z,38.45
2017-04-01T02:17:08.279Z,36.72
2017-04-01T02:18:08.246Z,31.18
2017-04-01T02:19:08.261Z,40.30
2017-04-01T02:20:08.300Z,42.83
2017-04-01T02:21:08.936Z,29.98
2017-04-01T02:22:08.960Z,38.30
2017-04-01T02:23:09.692Z,34.07
2017-04-01T02:24:09.722Z,37.38
2017-04-01T02:25:09.910Z,28.50
2017-04-01T02:26:11.060Z,40.28
2017-04-01T02:27:11.892Z,41.07
2017-04-01T02:28:12.602Z,37.60
2017-04-01T02:29:12.650Z,35.88
2017-04-01T02:30:12.674Z,29.50
2017-04-01T02:31:13.125Z,37.67
2017-04-01T02:32:13.099Z,36.97
2017-04-01T02:33:13.126Z,33.73
2017-04-01T02:34:13.150Z,36.63
2017-04-01T02:35:13.130Z,44.83
2017-04-01T02:36:13.610Z,39.48
2017-04-01T02:37:13.638Z,35.07
2017-04-01T02:38:13.678Z,34.77
2017-04-01T02:39:13.722Z,32.93
2017-04-01T02:40:13.838Z,36.98
2017-04-01T02:41:14.640Z,30.47
2017-04-01T02:42:14.645Z,35.13
2017-04-01T02:43:14.666Z,40.05
2017-04-01T02:44:14.821Z,38.68
2017-04-01T02:45:14.877Z,31.13
2017-04-01T02:46:15.478Z,35.00
2017-04-01T02:47:15.518Z,35.75
2017-04-01T02:48:15.548Z,35.68
2017-04-01T02:49:15.546Z,35.00
2017-04-01T02:50:16.681Z,32.97
2017-04-01T02:51:17.146Z,34.97
2017-04-01T02:52:17.183Z,36.17
2017-04-01T02:53:17.208Z,35.23
2017-04-01T02:54:17.231Z,27.57
2017-04-01T02:55:17.267Z,32.58
2017-04-01T02:56:17.594Z,34.92
2017-04-01T02:57:17.630Z,37.53
2017-04-01T02:58:17.628Z,32.40
2017-04-01T02:59:17.639Z,30.67
2017-04-01T03:00:18.246Z,32.60
2017-04-01T03:01:18.842Z,35.23
2017-04-01T03:02:18.871Z,33.58
2017-04-01T03:03:19.113Z,36.20
2017-04-01T03:04:19.176Z,30.75
2017-04-01T03:05:19.238Z,32.32
2017-04-01T03:06:19.629Z,35.78
2017-04-01T03:07:19.699Z,36.63
2017-04-01T03:08:19.736Z,30.50
2017-04-01T03:09:19.747Z,34.50
2017-04-01T03:10:19.833Z,38.10
2017-04-01T03:11:20.270Z,34.05
2017-04-01T03:12:20.324Z,32.05
2017-04-01T03:13:20.409Z,32.37
2017-04-01T03:14:20.423Z,32.98
2017-04-01T03:15:20.562Z,38.32
2017-04-01T03:16:21.024Z,34.27
2017-04-01T03:17:21.054Z,31.35
2017-04-01T03:18:21.106Z,33.87
2017-04-01T03:19:21.377Z,36.93
2017-04-01T03:20:21.470Z,37.95
2017-04-01T03:21:21.846Z,36.93
2017-04-01T03:22:21.890Z,33.70
2017-04-01T03:23:22.974Z,40.58
2017-04-01T03:24:25.059Z,33.60
2017-04-01T03:25:25.104Z,33.62
2017-04-01T03:26:25.255Z,33.13
2017-04-01T03:27:25.281Z,37.90
2017-04-01T03:28:26.025Z,36.37
2017-04-01T03:29:26.044Z,32.65
2017-04-01T03:30:26.882Z,37.47
2017-04-01T03:31:27.213Z,32.78
2017-04-01T03:32:27.294Z,31.13
2017-04-01T03:33:28.076Z,32.92
2017-04-01T03:34:28.839Z,31.62
2017-04-01T03:35:29.365Z,36.48
2017-04-01T03:36:29.828Z,33.53
2017-04-01T03:37:29.926Z,35.33
2017-04-01T03:38:29.915Z,32.35
2017-04-01T03:39:30.606Z,37.30
2017-04-01T03:40:30.622Z,31.60
2017-04-01T03:41:30.983Z,31.22
2017-04-01T03:42:31.119Z,37.50
2017-04-01T03:43:31.089Z,36.07
2017-04-01T03:44:31.209Z,34.58
2017-04-01T03:45:31.948Z,35.27
2017-04-01T03:46:35.927Z,34.00
2017-04-01T03:47:35.948Z,36.05
2017-04-01T03:48:35.982Z,32.08
2017-04-01T03:49:35.998Z,34.40
2017-04-01T03:50:36.795Z,33.80
2017-04-01T03:51:37.902Z,29.68
2017-04-01T03:52:38.427Z,35.70
2017-04-01T03:53:38.439Z,30.97
2017-04-01T03:54:38.500Z,31.87
2017-04-01T03:55:38.520Z,35.37
2017-04-01T03:56:38.870Z,34.37
2017-04-01T03:57:39.576Z,35.70
2017-04-01T03:58:40.501Z,39.48
2017-04-01T03:59:40.504Z,37.05
2017-04-01T04:00:40.578Z,33.87
2017-04-01T04:01:40.962Z,35.68
2017-04-01T04:02:40.968Z,36.32
2017-04-01T04:03:41.183Z,36.60
2017-04-01T04:04:41.249Z,36.13
2017-04-01T04:05:41.287Z,35.83
2017-04-01T04:06:41.703Z,41.97
2017-04-01T04:07:41.769Z,33.93
2017-04-01T04:08:41.806Z,40.07
2017-04-01T04:09:41.829Z,36.20
2017-04-01T04:10:41.967Z,34.75
2017-04-01T04:11:42.324Z,35.02
2017-04-01T04:12:42.370Z,39.07
2017-04-01T04:13:42.543Z,34.08
2017-04-01T04:14:42.671Z,38.37
2017-04-01T04:15:44.082Z,32.85
2017-04-01T04:16:48.048Z,33.42
2017-04-01T04:17:48.706Z,30.48
2017-04-01T04:18:49.526Z,34.52
2017-04-01T04:19:49.609Z,32.75
2017-04-01T04:20:49.606Z,37.97
2017-04-01T04:21:49.993Z,41.02
2017-04-01T04:22:49.974Z,32.83
2017-04-01T04:23:50.016Z,34.65
2017-04-01T04:24:50.017Z,34.45
2017-04-01T04:25:50.752Z,31.58
2017-04-01T04:26:51.482Z,31.68
2017-04-01T04:27:51.494Z,30.60
2017-04-01T04:28:51.546Z,33.43
2017-04-01T04:29:51.487Z,32.88
2017-04-01T04:30:51.546Z,35.62
2017-04-01T04:31:51.870Z,30.18
2017-04-01T04:32:52.072Z,31.73
2017-04-01T04:33:52.114Z,31.20
2017-04-01T04:34:53.030Z,33.30
2017-04-01T04:35:53.083Z,31.30
2017-04-01T04:36:53.464Z,38.45
2017-04-01T04:37:54.263Z,28.75
2017-04-01T04:38:54.303Z,31.62
2017-04-01T04:39:54.321Z,37.05
2017-04-01T04:40:54.367Z,33.27
2017-04-01T04:41:54.828Z,34.15
2017-04-01T04:42:54.875Z,40.13
2017-04-01T04:43:54.967Z,32.28
2017-04-01T04:44:55.010Z,33.10
2017-04-01T04:45:55.148Z,33.05
2017-04-01T04:46:56.975Z,32.93
2017-04-01T04:47:57.142Z,36.10
2017-04-01T04:48:57.257Z,32.65
2017-04-01T04:49:57.551Z,31.58
2017-04-01T04:50:57.566Z,32.68
2017-04-01T04:51:58.065Z,32.73
2017-04-01T04:52:58.217Z,37.83
2017-04-01T04:53:58.342Z,34.87
2017-04-01T04:54:58.399Z,30.12
2017-04-01T04:55:58.490Z,37.02
2017-04-01T04:56:58.918Z,31.87
2017-04-01T04:57:59.671Z,34.62
2017-04-01T04:58:59.696Z,33.53
2017-04-01T04:59:59.733Z,34.92
2017-04-01T05:00:59.775Z,47.13
2017-04-01T05:02:00.154Z,40.17
2017-04-01T05:03:00.204Z,34.75
2017-04-01T05:04:00.286Z,36.62
2017-04-01T05:05:00.309Z,37.73
2017-04-01T05:06:00.424Z,34.37
2017-04-01T05:07:00.949Z,35.18
2017-04-01T05:08:01.009Z,33.88
2017-04-01T05:09:01.174Z,34.70
2017-04-01T05:10:01.319Z,33.47
2017-04-01T05:11:01.345Z,35.53
2017-04-01T05:12:01.770Z,39.45
2017-04-01T05:13:02.398Z,33.53
2017-04-01T05:14:03.205Z,32.12
2017-04-01T05:15:03.212Z,34.43
2017-04-01T05:16:03.246Z,34.57
2017-04-01T05:17:03.557Z,37.83
2017-04-01T05:18:03.614Z,33.63
2017-04-01T05:19:03.644Z,29.50
2017-04-01T05:20:03.670Z,31.12
2017-04-01T05:21:04.534Z,31.93
2017-04-01T05:22:05.243Z,33.95
2017-04-01T05:23:05.454Z,32.52
2017-04-01T05:24:05.471Z,36.90
2017-04-01T05:25:05.503Z,34.43
2017-04-01T05:26:05.536Z,37.87
2017-04-01T05:27:05.858Z,30.23
2017-04-01T05:28:17.333Z,30.78
2017-04-01T05:29:17.370Z,33.33
2017-04-01T05:30:20.702Z,31.35
2017-04-01T05:31:20.705Z,34.65
2017-04-01T05:32:20.694Z,30.72
2017-04-01T05:33:20.865Z,35.47
2017-04-01T05:34:20.935Z,39.80
2017-04-01T05:35:20.983Z,37.25
2017-04-01T05:36:20.310Z,31.98
2017-04-01T05:37:21.507Z,38.45
2017-04-01T05:38:22.332Z,32.32
2017-04-01T05:39:23.093Z,34.55
2017-04-01T05:40:23.136Z,34.32
2017-04-01T05:41:23.164Z,38.70
2017-04-01T05:42:23.570Z,42.17
2017-04-01T05:43:23.618Z,32.43
2017-04-01T05:44:23.659Z,35.60
2017-04-01T05:45:23.758Z,33.92
2017-04-01T05:46:24.010Z,36.27
2017-04-01T05:47:24.514Z,36.97
2017-04-01T05:48:24.584Z,40.55
2017-04-01T05:49:24.629Z,41.88
2017-04-01T05:50:24.654Z,32.55
2017-04-01T05:51:26.094Z,38.72
2017-04-01T05:52:26.521Z,40.97
2017-04-01T05:53:27.314Z,33.18
2017-04-01T05:54:27.342Z,31.52
2017-04-01T05:55:28.152Z,40.18
2017-04-01T05:56:28.215Z,39.42
2017-04-01T05:57:28.698Z,40.55
2017-04-01T05:58:28.696Z,31.95
2017-04-01T05:59:28.742Z,32.78
2017-04-01T06:00:29.950Z,38.23
2017-04-01T06:01:29.986Z,35.67
2017-04-01T06:02:30.531Z,35.97
2017-04-01T06:03:30.666Z,32.68
2017-04-01T06:04:30.806Z,38.90
2017-04-01T06:05:30.869Z,33.60
2017-04-01T06:06:30.882Z,30.02
2017-04-01T06:07:31.503Z,32.12
2017-04-01T06:08:31.512Z,37.75
2017-04-01T06:09:31.535Z,36.40
2017-04-01T06:10:31.589Z,29.18
2017-04-01T06:11:31.894Z,31.67
2017-04-01T06:12:32.298Z,34.25
2017-04-01T06:13:33.369Z,35.82
2017-04-01T06:14:33.451Z,37.18
2017-04-01T06:15:33.430Z,37.40
2017-04-01T06:16:33.457Z,33.28
2017-04-01T06:17:34.055Z,34.93
2017-04-01T06:18:34.070Z,36.50
2017-04-01T06:19:34.781Z,37.95
2017-04-01T06:20:34.858Z,38.78
2017-04-01T06:21:34.951Z,33.70
2017-04-01T06:22:35.044Z,29.12
2017-04-01T06:23:35.242Z,31.03
2017-04-01T06:24:37.319Z,35.52
2017-04-01T06:25:38.587Z,37.17
2017-04-01T06:26:40.255Z,32.87
2017-04-01T06:27:40.658Z,36.27
2017-04-01T06:28:41.995Z,33.95
2017-04-01T06:29:42.281Z,33.10
2017-04-01T06:30:42.398Z,34.97
2017-04-01T06:31:42.483Z,31.75
2017-04-01T06:32:42.818Z,32.98
2017-04-01T06:33:43.585Z,32.47
2017-04-01T06:34:43.673Z,36.63
2017-04-01T06:35:43.662Z,33.37
2017-04-01T06:36:43.710Z,31.85
2017-04-01T06:37:44.110Z,34.98
2017-04-01T06:38:45.467Z,32.42
2017-04-01T06:39:45.516Z,35.02
2017-04-01T06:40:45.585Z,28.72
2017-04-01T06:41:45.631Z,30.50
2017-04-01T06:42:45.960Z,30.60
2017-04-01T06:43:46.537Z,38.57
2017-04-01T06:44:46.555Z,38.62
2017-04-01T06:45:46.845Z,30.97
2017-04-01T06:46:46.854Z,41.07
2017-04-01T06:47:47.226Z,31.98
2017-04-01T06:48:47.937Z,30.48
2017-04-01T06:49:48.010Z,36.63
2017-04-01T06:50:48.035Z,27.07
2017-04-01T06:51:48.364Z,30.55
2017-04-01T06:52:48.805Z,33.10
2017-04-01T06:53:48.949Z,34.02
2017-04-01T06:54:49.733Z,30.82
2017-04-01T06:55:49.787Z,31.27
2017-04-01T06:56:50.010Z,31.72
2017-04-01T06:57:50.687Z,30.65
2017-04-01T06:58:50.914Z,32.00
2017-04-01T06:59:51.362Z,30.18
2017-04-01T07:00:51.366Z,29.38
2017-04-01T07:01:51.428Z,34.28
2017-04-01T07:02:51.755Z,32.33
2017-04-01T07:03:51.870Z,34.17
2017-04-01T07:04:51.911Z,27.67
2017-04-01T07:05:51.952Z,34.25
2017-04-01T07:06:52.735Z,29.63
2017-04-01T07:07:53.187Z,30.47
2017-04-01T07:08:53.212Z,31.90
2017-04-01T07:09:53.234Z,29.53
2017-04-01T07:10:53.452Z,32.67
2017-04-01T07:11:53.490Z,32.45
2017-04-01T07:12:54.041Z,28.47
2017-04-01T07:13:54.138Z,27.75
2017-04-01T07:14:54.251Z,29.67
2017-04-01T07:15:54.360Z,33.08
2017-04-01T07:16:54.697Z,30.82
2017-04-01T07:17:55.003Z,27.03
2017-04-01T07:18:55.814Z,28.37
2017-04-01T07:19:55.865Z,29.70
2017-04-01T07:20:56.082Z,27.03
2017-04-01T07:21:57.006Z,29.63
2017-04-01T07:22:57.412Z,26.53
2017-04-01T07:23:57.475Z,25.30
2017-04-01T07:24:57.531Z,28.88
2017-04-01T07:25:57.832Z,31.02
2017-04-01T07:26:58.239Z,27.05
2017-04-01T07:27:59.025Z,26.72
2017-04-01T07:28:59.166Z,27.58
2017-04-01T07:29:59.216Z,26.85
2017-04-01T07:30:59.257Z,27.12
2017-04-01T07:31:59.341Z,25.53
2017-04-01T07:33:00.836Z,27.22
2017-04-01T07:34:00.823Z,26.67
2017-04-01T07:35:00.975Z,25.20
2017-04-01T07:36:01.007Z,27.23
2017-04-01T07:37:01.075Z,27.43
2017-04-01T07:38:01.120Z,22.52
2017-04-01T07:39:01.204Z,23.68
2017-04-01T07:40:01.423Z,23.47
2017-04-01T07:41:01.509Z,25.62
2017-04-01T07:42:01.580Z,22.85
2017-04-01T07:43:01.813Z,17.15
2017-04-01T07:44:02.250Z,24.20
2017-04-01T07:45:02.424Z,17.58
2017-04-01T07:46:02.629Z,19.05
2017-04-01T07:47:02.795Z,17.50
2017-04-01T07:48:02.855Z,15.02
2017-04-01T07:49:03.334Z,23.27
2017-04-01T07:50:03.474Z,16.32
2017-04-01T07:51:03.630Z,17.42
2017-04-01T07:52:03.640Z,27.43
2017-04-01T07:53:03.713Z,20.15
2017-04-01T07:54:04.161Z,18.25
2017-04-01T07:55:04.216Z,14.95
2017-04-01T07:56:04.265Z,14.52
2017-04-01T07:57:04.423Z,17.50
2017-04-01T07:58:04.460Z,19.80
2017-04-01T07:59:04.916Z,19.42
2017-04-01T08:00:04.950Z,16.60
2017-04-01T08:01:05.048Z,13.98
2017-04-01T08:02:05.122Z,15.98
2017-04-01T08:03:05.229Z,16.82
2017-04-01T08:04:06.268Z,14.88
2017-04-01T08:05:06.367Z,17.50
2017-04-01T08:06:06.435Z,17.88
2017-04-01T08:07:06.483Z,17.30
2017-04-01T08:08:06.613Z,12.55
2017-04-01T08:09:07.156Z,16.10
2017-04-01T08:10:07.220Z,15.20
2017-04-01T08:11:07.798Z,16.75
2017-04-01T08:12:08.360Z,17.98
2017-04-01T08:13:11.259Z,12.92
2017-04-01T08:14:12.485Z,18.53
2017-04-01T08:15:12.589Z,11.50
2017-04-01T08:16:12.716Z,11.80
2017-04-01T08:17:12.759Z,14.13
2017-04-01T08:18:12.806Z,15.13
2017-04-01T08:19:13.169Z,16.37
2017-04-01T08:20:13.503Z,18.53
2017-04-01T08:21:13.672Z,12.45
2017-04-01T08:22:13.716Z,12.58
2017-04-01T08:23:14.891Z,13.75
2017-04-01T08:24:15.475Z,13.33
2017-04-01T08:25:15.889Z,12.60
2017-04-01T08:26:15.952Z,13.03
2017-04-01T08:27:16.166Z,12.32
2017-04-01T08:28:16.294Z,11.55
2017-04-01T08:29:16.869Z,10.80
2017-04-01T08:30:16.939Z,10.33
2017-04-01T08:31:17.974Z,15.03
2017-04-01T08:32:18.044Z,9.07
2017-04-01T08:33:18.257Z,10.43
2017-04-01T08:34:18.883Z,11.47
2017-04-01T08:35:19.064Z,10.92
2017-04-01T08:36:19.194Z,12.80
2017-04-01T08:37:19.283Z,16.73
2017-04-01T08:38:19.339Z,15.00
2017-04-01T08:39:19.802Z,11.45
2017-04-01T08:40:19.833Z,15.48
2017-04-01T08:41:19.925Z,15.38
2017-04-01T08:42:20.082Z,19.95
2017-04-01T08:43:20.143Z,15.15
2017-04-01T08:44:20.658Z,15.48
2017-04-01T08:45:20.752Z,19.63
2017-04-01T08:46:20.858Z,19.90
2017-04-01T08:47:20.943Z,17.37
2017-04-01T08:48:21.014Z,16.63
2017-04-01T08:49:21.409Z,17.97
2017-04-01T08:50:21.522Z,16.30
2017-04-01T08:51:21.575Z,19.75
2017-04-01T08:52:21.648Z,19.38
2017-04-01T08:53:21.717Z,15.35
2017-04-01T08:54:22.132Z,18.25
2017-04-01T08:55:22.259Z,15.20
2017-04-01T08:56:22.294Z,17.45
2017-04-01T08:57:22.581Z,19.42
2017-04-01T08:58:22.670Z,13.93
2017-04-01T08:59:23.114Z,15.80
2017-04-01T09:00:23.349Z,14.88
2017-04-01T09:01:23.437Z,14.02
2017-04-01T09:02:23.744Z,10.28
2017-04-01T09:03:23.787Z,16.60
2017-04-01T09:04:24.374Z,14.75
2017-04-01T09:05:24.512Z,14.00
2017-04-01T09:06:24.579Z,14.90
2017-04-01T09:07:24.667Z,15.53
2017-04-01T09:08:24.787Z,14.75
2017-04-01T09:09:25.423Z,13.30
2017-04-01T09:10:25.499Z,14.93
2017-04-01T09:11:26.406Z,11.88
2017-04-01T09:12:26.460Z,15.27
2017-04-01T09:13:26.524Z,14.85
2017-04-01T09:14:27.005Z,13.60
2017-04-01T09:15:27.082Z,13.40
2017-04-01T09:16:27.210Z,15.42
2017-04-01T09:17:28.446Z,11.27
2017-04-01T09:18:28.491Z,12.65
2017-04-01T09:19:29.058Z,12.73
2017-04-01T09:20:29.109Z,9.58
2017-04-01T09:21:29.403Z,15.50
2017-04-01T09:22:29.614Z,10.02
2017-04-01T09:23:29.674Z,12.52
2017-04-01T09:24:30.047Z,14.35
2017-04-01T09:25:30.205Z,10.93
2017-04-01T09:26:30.310Z,9.77
2017-04-01T09:27:30.415Z,7.30
2017-04-01T09:28:30.652Z,9.18
2017-04-01T09:29:31.921Z,11.37
2017-04-01T09:30:32.163Z,10.73
2017-04-01T09:31:32.268Z,8.93
2017-04-01T09:32:32.329Z,9.05
2017-04-01T09:33:33.217Z,8.93
2017-04-01T09:34:33.576Z,8.70
2017-04-01T09:35:34.840Z,5.37
2017-04-01T09:36:34.987Z,4.60
2017-04-01T09:37:35.137Z,5.78
2017-04-01T09:38:35.244Z,9.22
2017-04-01T09:39:35.552Z,4.93
2017-04-01T09:40:36.758Z,4.38
2017-04-01T09:41:36.836Z,5.12
2017-04-01T09:42:36.915Z,9.82
2017-04-01T09:43:37.072Z,8.98
2017-04-01T09:44:37.407Z,5.07
2017-04-01T09:45:37.587Z,5.52
2017-04-01T09:46:37.641Z,6.60
2017-04-01T09:47:37.685Z,6.67
2017-04-01T09:48:37.736Z,6.78
2017-04-01T09:49:38.166Z,10.78
2017-04-01T09:50:38.202Z,5.13
2017-04-01T09:51:38.210Z,5.87
2017-04-01T09:52:38.218Z,6.67
2017-04-01T09:53:38.190Z,6.77
2017-04-01T09:54:38.613Z,8.25
2017-04-01T09:55:39.402Z,7.28
2017-04-01T09:56:39.461Z,5.65
2017-04-01T09:57:39.519Z,4.65
2017-04-01T09:58:39.765Z,6.35
2017-04-01T09:59:40.184Z,8.15
2017-04-01T10:00:40.337Z,7.60
2017-04-01T10:01:40.409Z,6.22
2017-04-01T10:02:40.588Z,4.70
2017-04-01T10:03:41.148Z,6.17
2017-04-01T10:04:41.650Z,9.07
2017-04-01T10:05:41.900Z,8.33
2017-04-01T10:06:42.034Z,10.27
2017-04-01T10:07:42.110Z,8.48
2017-04-01T10:08:42.200Z,12.08
2017-04-01T10:09:42.586Z,8.92
2017-04-01T10:10:43.482Z,5.63
2017-04-01T10:11:43.588Z,7.22
2017-04-01T10:12:43.595Z,10.93
2017-04-01T10:13:43.663Z,9.98
2017-04-01T10:14:44.051Z,12.18
2017-04-01T10:15:44.086Z,7.67
2017-04-01T10:16:44.178Z,8.23
2017-04-01T10:17:44.213Z,8.72
2017-04-01T10:18:44.288Z,8.23
2017-04-01T10:19:44.815Z,8.52
2017-04-01T10:20:44.941Z,10.40
2017-04-01T10:21:45.034Z,7.33
2017-04-01T10:22:45.117Z,8.37
2017-04-01T10:23:45.173Z,13.00
2017-04-01T10:24:45.553Z,8.63
2017-04-01T10:25:45.731Z,8.98
2017-04-01T10:26:45.790Z,9.43
2017-04-01T10:27:45.824Z,9.93
2017-04-01T10:28:45.885Z,8.53
2017-04-01T10:29:46.992Z,11.28
2017-04-01T10:30:47.154Z,15.28
2017-04-01T10:31:47.835Z,8.03
2017-04-01T10:32:47.938Z,10.07
2017-04-01T10:33:48.062Z,9.45
2017-04-01T10:34:48.497Z,11.38
2017-04-01T10:35:49.352Z,9.73
2017-04-01T10:36:49.433Z,10.88
2017-04-01T10:37:49.506Z,14.27
2017-04-01T10:38:49.694Z,9.20
2017-04-01T10:39:51.141Z,10.37
2017-04-01T10:40:51.194Z,11.05
2017-04-01T10:41:51.363Z,12.12
2017-04-01T10:42:51.601Z,17.72
2017-04-01T10:43:51.736Z,8.78
2017-04-01T10:44:52.245Z,7.77
2017-04-01T10:45:52.319Z,9.58
2017-04-01T10:46:52.436Z,11.83
2017-04-01T10:47:52.566Z,11.35
2017-04-01T10:48:52.784Z,9.98
2017-04-01T10:49:53.309Z,7.92
2017-04-01T10:50:53.412Z,13.23
2017-04-01T10:51:53.493Z,9.87
2017-04-01T10:52:53.588Z,12.33
2017-04-01T10:53:53.758Z,12.17
2017-04-01T10:54:54.253Z,10.90
2017-04-01T10:55:54.433Z,13.78
2017-04-01T10:56:54.536Z,13.13
2017-04-01T10:57:54.631Z,12.07
2017-04-01T10:58:54.685Z,10.77
2017-04-01T10:59:55.938Z,12.78
2017-04-01T11:00:56.104Z,11.42
2017-04-01T11:01:56.918Z,10.92
2017-04-01T11:02:57.131Z,9.72
2017-04-01T11:03:57.181Z,12.40
2017-04-01T11:04:57.756Z,11.63
2017-04-01T11:05:57.787Z,11.30
2017-04-01T11:06:57.824Z,11.57
2017-04-01T11:07:57.886Z,8.68
2017-04-01T11:08:57.955Z,12.98
2017-04-01T11:09:58.442Z,15.10
2017-04-01T11:10:58.612Z,11.32
2017-04-01T11:11:58.699Z,13.62
2017-04-01T11:12:58.797Z,11.13
2017-04-01T11:13:58.894Z,10.02
2017-04-01T11:14:59.349Z,14.62
2017-04-01T11:15:59.431Z,12.02
2017-04-01T11:16:59.536Z,12.12
2017-04-01T11:17:59.883Z,11.72
2017-04-01T11:19:00.114Z,13.12
2017-04-01T11:20:00.506Z,12.05
2017-04-01T11:21:00.671Z,10.97
2017-04-01T11:22:00.858Z,14.37
2017-04-01T11:23:00.958Z,14.82
2017-04-01T11:24:01.061Z,13.83
2017-04-01T11:25:01.511Z,13.63
2017-04-01T11:26:01.542Z,12.28
2017-04-01T11:27:01.558Z,17.25
2017-04-01T11:28:01.635Z,19.22
2017-04-01T11:29:02.492Z,19.45
2017-04-01T11:30:02.931Z,15.10
2017-04-01T11:31:02.991Z,16.57
2017-04-01T11:32:03.048Z,14.15
2017-04-01T11:33:03.096Z,15.12
2017-04-01T11:34:03.151Z,13.87
2017-04-01T11:35:03.665Z,13.45
2017-04-01T11:36:03.786Z,14.30
2017-04-01T11:37:03.857Z,15.63
2017-04-01T11:38:03.945Z,16.95
2017-04-01T11:39:05.097Z,17.82
2017-04-01T11:40:05.555Z,21.75
2017-04-01T11:41:06.439Z,17.58
2017-04-01T11:42:06.527Z,16.35
2017-04-01T11:43:07.338Z,14.80
2017-04-01T11:44:08.177Z,17.83
2017-04-01T11:45:08.582Z,18.12
2017-04-01T11:46:08.820Z,19.67
2017-04-01T11:47:08.899Z,22.05
2017-04-01T11:48:08.982Z,18.82
2017-04-01T11:49:09.066Z,21.85
2017-04-01T11:50:09.459Z,22.20
2017-04-01T11:51:09.470Z,22.12
2017-04-01T11:52:09.473Z,21.22
2017-04-01T11:53:09.495Z,19.32
2017-04-01T11:54:09.534Z,22.88
2017-04-01T11:55:10.107Z,22.05
2017-04-01T11:56:10.215Z,21.73
2017-04-01T11:57:10.255Z,21.50
2017-04-01T11:58:10.474Z,24.83
2017-04-01T11:59:10.625Z,20.47
2017-04-01T12:00:11.758Z,17.45
2017-04-01T12:01:11.804Z,20.77
2017-04-01T12:02:11.941Z,20.65
2017-04-01T12:03:11.981Z,24.92
2017-04-01T12:04:12.033Z,25.08
2017-04-01T12:05:12.507Z,22.10
2017-04-01T12:06:12.651Z,25.47
2017-04-01T12:07:12.770Z,21.80
2017-04-01T12:08:12.888Z,30.82
2017-04-01T12:09:12.847Z,20.18
2017-04-01T12:10:13.266Z,20.75
2017-04-01T12:11:13.285Z,24.58
2017-04-01T12:12:13.538Z,25.70
2017-04-01T12:13:13.666Z,22.08
2017-04-01T12:14:13.762Z,18.50
2017-04-01T12:15:14.342Z,18.73
2017-04-01T12:16:14.405Z,19.23
2017-04-01T12:17:14.540Z,19.37
2017-04-01T12:18:15.332Z,19.67
2017-04-01T12:19:15.426Z,18.52
2017-04-01T12:20:15.834Z,27.75
2017-04-01T12:21:16.033Z,22.22
2017-04-01T12:22:16.293Z,21.75
2017-04-01T12:23:16.343Z,16.97
2017-04-01T12:24:16.586Z,16.43
2017-04-01T12:25:16.988Z,17.72
2017-04-01T12:26:17.111Z,17.77
2017-04-01T12:27:17.267Z,15.78
2017-04-01T12:28:17.407Z,18.18
2017-04-01T12:29:17.509Z,16.52
2017-04-01T12:30:18.745Z,16.80
2017-04-01T12:31:18.873Z,17.62
2017-04-01T12:32:18.933Z,23.55
2017-04-01T12:33:19.305Z,16.70
2017-04-01T12:34:19.329Z,16.47
2017-04-01T12:35:19.701Z,15.35
2017-04-01T12:36:19.787Z,18.72
2017-04-01T12:37:19.887Z,16.02
2017-04-01T12:38:20.975Z,16.30
2017-04-01T12:39:21.029Z,14.67
2017-04-01T12:40:21.563Z,14.72
2017-04-01T12:41:21.623Z,20.55
2017-04-01T12:42:21.721Z,17.52
2017-04-01T12:43:21.761Z,17.78
2017-04-01T12:44:21.979Z,16.43
2017-04-01T12:45:22.808Z,17.87
2017-04-01T12:46:22.875Z,20.38
2017-04-01T12:47:22.959Z,16.65
2017-04-01T12:48:23.007Z,18.10
2017-04-01T12:49:23.022Z,19.62
2017-04-01T12:50:23.553Z,15.50
2017-04-01T12:51:23.572Z,19.47
2017-04-01T12:52:23.660Z,17.28
2017-04-01T12:53:23.789Z,16.50
2017-04-01T12:54:23.810Z,17.67
2017-04-01T12:55:24.311Z,19.12
2017-04-01T12:56:24.409Z,18.50
2017-04-01T12:57:24.495Z,16.20
2017-04-01T12:58:24.926Z,20.85